Time;durP1;ratioP1;P1;durP2;ratioP2;P2;SDS_P1;SDS_P2;PMS_P1;PMS_P2;Temp;Humidity;BMP_temperature;BMP_pressure;BME280_temperature;BME280_humidity;BME280_pressure;Samples;Min_cycle;Max_cycle;Signal;HPM_P1;HPM_P2
2022/05/14 00:01:05;;;;;;;10.83;9.30;;;16.90;99.90;;;;;;5051622;28;20931;-64
2022/05/14 00:03:35;;;;;;;12.07;9.00;;;16.90;99.90;;;;;;5051995;28;20499;-64
2022/05/14 00:06:05;;;;;;;8.70;7.73;;;16.70;99.90;;;;;;5051460;28;20445;-65
2022/05/14 00:08:33;;;;;;;11.10;7.77;;;16.70;99.90;;;;;;5051792;28;20472;-64
2022/05/14 00:13:50;;;;;;;13.27;8.00;;;16.70;99.90;;;;;;5051970;28;20950;-64
2022/05/14 00:16:18;;;;;;;11.63;8.17;;;16.70;99.90;;;;;;5051886;28;20445;-64
2022/05/14 00:18:46;;;;;;;11.20;7.67;;;16.70;99.90;;;;;;5050974;28;20445;-64
2022/05/14 00:21:14;;;;;;;11.77;9.00;;;16.70;99.90;;;;;;5051797;28;20437;-64
2022/05/14 00:23:41;;;;;;;10.60;7.67;;;16.70;99.90;;;;;;5052460;28;20524;-64
2022/05/14 00:26:10;;;;;;;9.73;8.70;;;16.60;99.90;;;;;;5051844;28;20519;-64
2022/05/14 00:28:37;;;;;;;9.67;7.03;;;16.70;99.90;;;;;;5051526;28;20479;-64
2022/05/14 00:31:05;;;;;;;9.43;8.50;;;16.60;99.90;;;;;;5051977;28;20451;-64
2022/05/14 00:33:32;;;;;;;10.80;8.03;;;16.70;99.90;;;;;;5052394;28;20439;-64
2022/05/14 00:36:00;;;;;;;9.33;7.57;;;16.60;99.90;;;;;;5051571;28;20868;-64
2022/05/14 00:38:28;;;;;;;8.80;7.87;;;16.50;99.90;;;;;;5051773;28;20766;-64
2022/05/14 00:40:58;;;;;;;9.33;7.33;;;16.50;99.90;;;;;;5051798;28;20445;-64
2022/05/14 00:43:28;;;;;;;8.70;7.00;;;16.50;99.90;;;;;;5052353;28;20548;-64
2022/05/14 00:45:57;;;;;;;13.17;7.80;;;16.50;99.90;;;;;;5050998;28;20471;-64
2022/05/14 00:48:29;;;;;;;12.10;7.77;;;16.50;99.90;;;;;;5051431;28;20528;-64
2022/05/14 00:50:59;;;;;;;11.63;8.97;;;16.60;99.90;;;;;;5050747;28;20448;-64
2022/05/14 00:53:31;;;;;;;13.03;9.90;;;16.60;99.90;;;;;;5051558;28;20441;-64
2022/05/14 00:56:02;;;;;;;10.53;8.87;;;16.50;99.90;;;;;;5052136;28;20448;-64
2022/05/14 00:58:36;;;;;;;9.00;7.30;;;16.50;99.90;;;;;;5051820;28;20593;-64
2022/05/14 01:01:04;;;;;;;8.67;7.73;;;16.50;99.90;;;;;;5052038;28;20437;-64
2022/05/14 01:03:31;;;;;;;8.90;7.10;;;16.50;99.90;;;;;;5051354;28;20433;-65
2022/05/14 01:06:00;;;;;;;8.80;6.90;;;16.50;99.90;;;;;;5051942;28;20523;-64
2022/05/14 01:08:29;;;;;;;7.77;6.90;;;16.40;99.90;;;;;;5051408;28;20526;-64
2022/05/14 01:10:57;;;;;;;8.30;6.77;;;16.40;99.90;;;;;;5051861;28;20451;-65
2022/05/14 01:13:25;;;;;;;9.83;8.00;;;16.40;99.90;;;;;;5051558;28;20506;-64
2022/05/14 01:15:55;;;;;;;8.47;7.17;;;16.30;99.90;;;;;;5051987;28;20441;-64
2022/05/14 01:18:24;;;;;;;10.63;8.40;;;16.30;99.90;;;;;;5051319;28;20468;-64
2022/05/14 01:20:56;;;;;;;11.90;8.30;;;16.30;99.90;;;;;;5051482;28;20927;-64
2022/05/14 01:26:27;;;;;;;9.60;7.40;;;16.30;99.90;;;;;;5051284;28;20444;-65
2022/05/14 01:26:29;;;;;;;11.03;8.00;;;16.20;99.90;;;;;;5053357;28;20437;-64
2022/05/14 01:28:57;;;;;;;10.17;7.80;;;16.20;99.90;;;;;;5055144;28;20472;-64
2022/05/14 01:31:27;;;;;;;15.20;8.80;;;16.10;99.90;;;;;;5055459;28;20449;-64
2022/05/14 01:33:55;;;;;;;8.70;7.80;;;16.00;99.90;;;;;;5054978;28;20934;-64
2022/05/14 01:36:22;;;;;;;9.37;8.10;;;16.00;99.90;;;;;;5055017;28;20759;-64
2022/05/14 01:38:49;;;;;;;11.43;7.60;;;16.00;99.90;;;;;;5055064;28;20440;-64
2022/05/14 01:41:17;;;;;;;11.40;7.27;;;16.00;99.90;;;;;;5054859;28;20476;-64
2022/05/14 01:43:45;;;;;;;8.50;6.67;;;16.00;99.90;;;;;;5055305;28;20445;-64
2022/05/14 01:46:13;;;;;;;8.10;6.40;;;15.90;99.90;;;;;;5054891;28;20441;-65
2022/05/14 01:48:40;;;;;;;7.40;6.70;;;15.90;99.90;;;;;;5054770;28;20491;-64
2022/05/14 01:51:08;;;;;;;6.40;5.80;;;15.80;99.90;;;;;;5055072;28;20448;-64
2022/05/14 01:53:35;;;;;;;6.43;5.50;;;15.80;99.90;;;;;;5053715;28;20448;-65
2022/05/14 01:56:02;;;;;;;7.87;6.50;;;15.80;99.90;;;;;;5055087;28;20783;-64
2022/05/14 01:58:40;;;;;;;7.97;6.33;;;15.70;99.90;;;;;;5054491;28;20433;-64
2022/05/14 02:01:11;;;;;;;8.57;5.20;;;15.70;99.90;;;;;;5055002;28;20914;-64
2022/05/14 02:03:39;;;;;;;7.80;5.93;;;15.60;99.90;;;;;;5054793;28;20831;-64
2022/05/14 02:06:07;;;;;;;6.47;5.47;;;15.50;99.90;;;;;;5054753;28;20437;-65
2022/05/14 02:08:34;;;;;;;8.90;7.30;;;15.50;99.90;;;;;;5054113;28;21036;-65
2022/05/14 02:11:02;;;;;;;9.03;6.20;;;15.50;99.90;;;;;;5054903;28;20444;-64
2022/05/14 02:13:29;;;;;;;7.50;5.83;;;15.40;99.90;;;;;;5053407;28;20437;-64
2022/05/14 02:15:57;;;;;;;8.47;6.27;;;15.40;99.90;;;;;;5054737;28;20502;-64
2022/05/14 02:18:26;;;;;;;8.67;6.83;;;15.40;99.90;;;;;;5054295;28;20441;-65
2022/05/14 02:20:53;;;;;;;7.70;6.40;;;15.40;99.90;;;;;;5054563;28;20552;-64
2022/05/14 02:23:20;;;;;;;8.10;5.80;;;15.40;99.90;;;;;;5053857;28;20968;-64
2022/05/14 02:25:47;;;;;;;6.37;5.70;;;15.40;99.90;;;;;;5054404;28;20436;-64
2022/05/14 02:28:15;;;;;;;6.10;5.50;;;15.40;99.90;;;;;;5054068;28;20472;-64
2022/05/14 02:30:43;;;;;;;8.03;5.10;;;15.30;99.90;;;;;;5054044;28;20429;-64
2022/05/14 02:33:11;;;;;;;4.53;4.07;;;15.20;99.90;;;;;;5054266;28;20433;-65
2022/05/14 02:35:40;;;;;;;4.70;4.30;;;15.10;99.90;;;;;;5053813;28;20436;-64
2022/05/14 02:38:07;;;;;;;5.93;5.03;;;15.10;99.90;;;;;;5053853;28;20437;-64
2022/05/14 02:40:35;;;;;;;9.30;6.47;;;15.00;99.90;;;;;;5054248;28;20848;-64
2022/05/14 02:43:02;;;;;;;7.97;6.60;;;14.90;99.90;;;;;;5053925;28;20477;-64
2022/05/14 02:45:30;;;;;;;6.53;5.93;;;14.80;99.90;;;;;;5054435;28;20461;-64
2022/05/14 02:47:57;;;;;;;6.50;5.90;;;14.80;99.90;;;;;;5053479;28;20476;-64
2022/05/14 02:50:24;;;;;;;9.57;5.87;;;14.80;99.90;;;;;;5053765;28;20449;-64
2022/05/14 02:52:54;;;;;;;7.53;5.50;;;14.70;99.90;;;;;;5053621;28;20436;-64
2022/05/14 02:55:22;;;;;;;5.90;5.30;;;14.70;99.90;;;;;;5053990;28;21000;-64
2022/05/14 02:57:49;;;;;;;6.93;5.30;;;14.70;99.90;;;;;;5053471;28;20503;-64
2022/05/14 03:00:19;;;;;;;7.73;5.33;;;14.70;99.90;;;;;;5053654;28;20881;-64
2022/05/14 03:02:47;;;;;;;6.00;5.40;;;14.70;99.90;;;;;;5052909;28;20441;-66
2022/05/14 03:05:16;;;;;;;5.63;4.97;;;14.70;99.90;;;;;;5053797;28;20445;-64
2022/05/14 03:07:44;;;;;;;6.73;5.43;;;14.70;99.90;;;;;;5052342;28;20537;-64
2022/05/14 03:10:13;;;;;;;13.10;5.50;;;14.70;99.90;;;;;;5053269;28;20481;-64
2022/05/14 03:12:40;;;;;;;6.70;4.40;;;14.60;99.90;;;;;;5053594;28;20793;-64
2022/05/14 03:15:10;;;;;;;11.63;5.23;;;14.60;99.90;;;;;;5053208;28;20519;-64
2022/05/14 03:17:37;;;;;;;11.97;5.27;;;14.50;99.90;;;;;;5053529;28;20491;-64
2022/05/14 03:20:07;;;;;;;14.00;6.30;;;14.40;99.90;;;;;;5053025;28;20437;-66
2022/05/14 03:22:35;;;;;;;9.50;6.80;;;14.50;99.90;;;;;;5053350;28;20473;-64
2022/05/14 03:25:03;;;;;;;9.00;7.10;;;14.50;99.90;;;;;;5052816;28;20440;-64
2022/05/14 03:27:32;;;;;;;11.07;7.90;;;14.50;99.90;;;;;;5053504;28;20498;-64
2022/05/14 03:29:59;;;;;;;10.70;7.97;;;14.60;99.90;;;;;;5052862;28;20476;-64
2022/05/14 03:32:27;;;;;;;9.37;7.17;;;14.70;99.90;;;;;;5053292;28;20447;-64
2022/05/14 03:34:55;;;;;;;9.40;7.33;;;14.70;99.90;;;;;;5052670;28;20441;-64
2022/05/14 03:37:23;;;;;;;8.83;5.80;;;14.80;99.90;;;;;;5052950;28;20480;-64
2022/05/14 03:39:50;;;;;;;5.00;3.93;;;14.70;99.90;;;;;;5052698;28;20429;-64
2022/05/14 03:42:18;;;;;;;6.33;4.53;;;14.70;99.90;;;;;;5053089;28;20646;-64
2022/05/14 03:44:48;;;;;;;7.53;5.33;;;14.70;99.90;;;;;;5052697;28;21040;-64
2022/05/14 03:47:16;;;;;;;10.50;6.57;;;14.60;99.90;;;;;;5052658;28;20469;-64
2022/05/14 03:49:43;;;;;;;14.33;8.17;;;14.60;99.90;;;;;;5051746;28;20472;-64
2022/05/14 03:52:11;;;;;;;19.80;8.70;;;14.50;99.90;;;;;;5052863;28;20617;-64
2022/05/14 03:54:38;;;;;;;12.03;7.13;;;14.50;99.90;;;;;;5052347;28;20437;-64
2022/05/14 03:57:06;;;;;;;12.20;8.43;;;14.60;99.90;;;;;;5052889;28;20445;-64
2022/05/14 03:59:34;;;;;;;9.07;8.17;;;14.60;99.90;;;;;;5052370;28;20445;-64
2022/05/14 04:02:05;;;;;;;7.50;6.57;;;14.60;99.90;;;;;;5052888;28;21003;-64
2022/05/14 04:04:33;;;;;;;10.17;7.33;;;14.70;99.90;;;;;;5052994;28;20437;-64
2022/05/14 04:07:00;;;;;;;7.20;6.50;;;14.80;99.90;;;;;;5052800;28;20433;-64
2022/05/14 04:09:28;;;;;;;7.93;6.27;;;14.70;99.90;;;;;;5052423;28;20586;-63
2022/05/14 04:11:55;;;;;;;11.60;6.77;;;14.70;99.90;;;;;;5052776;28;20445;-64
2022/05/14 04:14:24;;;;;;;8.33;6.73;;;14.70;99.90;;;;;;5052605;28;20445;-67
2022/05/14 04:16:51;;;;;;;8.33;6.30;;;14.80;99.90;;;;;;5032942;28;20489;-63
2022/05/14 04:19:20;;;;;;;8.40;7.40;;;14.80;99.90;;;;;;5032652;28;20446;-67
2022/05/14 04:21:48;;;;;;;10.00;7.50;;;14.90;99.90;;;;;;5032521;28;20597;-63
2022/05/14 04:24:15;;;;;;;7.27;6.57;;;14.90;99.90;;;;;;5032609;28;20449;-64
2022/05/14 04:26:43;;;;;;;8.40;7.60;;;14.90;99.90;;;;;;5051582;28;20429;-64
2022/05/14 04:29:10;;;;;;;9.30;8.50;;;14.90;99.90;;;;;;5052688;28;20477;-64
2022/05/14 04:31:39;;;;;;;8.70;7.90;;;14.90;99.90;;;;;;5051958;28;20798;-63
2022/05/14 04:34:07;;;;;;;6.97;6.27;;;15.00;99.90;;;;;;5052423;28;20437;-63
2022/05/14 04:36:36;;;;;;;7.63;6.93;;;15.00;99.90;;;;;;5052131;28;20444;-64
2022/05/14 04:39:03;;;;;;;6.20;5.60;;;15.00;99.90;;;;;;5052761;28;20452;-64
2022/05/14 04:41:31;;;;;;;6.70;6.10;;;15.10;99.90;;;;;;5052069;28;20447;-63
2022/05/14 04:43:59;;;;;;;6.53;5.90;;;15.10;99.90;;;;;;5052101;28;20464;-64
2022/05/14 04:46:26;;;;;;;6.33;5.73;;;15.10;99.90;;;;;;5050077;28;20447;-65
2022/05/14 04:48:54;;;;;;;6.93;6.23;;;15.00;99.90;;;;;;5052150;28;20824;-63
2022/05/14 04:51:22;;;;;;;8.10;6.27;;;15.10;99.90;;;;;;5050160;28;20433;-64
2022/05/14 04:53:50;;;;;;;8.27;7.37;;;15.10;99.90;;;;;;5052384;28;20441;-64
2022/05/14 04:56:17;;;;;;;10.50;8.67;;;15.20;99.90;;;;;;5051695;28;20499;-63
2022/05/14 04:58:44;;;;;;;6.77;6.07;;;15.20;99.90;;;;;;5052338;28;20437;-64
2022/05/14 05:01:11;;;;;;;7.10;6.40;;;15.20;99.90;;;;;;5055018;28;20506;-63
2022/05/14 05:03:38;;;;;;;7.33;6.63;;;15.20;99.90;;;;;;5056596;28;20494;-64
2022/05/14 05:06:05;;;;;;;8.70;6.90;;;15.30;99.90;;;;;;5055772;28;20487;-64
2022/05/14 05:08:34;;;;;;;9.33;7.70;;;15.30;99.90;;;;;;5056601;28;20433;-64
2022/05/14 05:11:02;;;;;;;7.67;6.97;;;15.40;99.90;;;;;;5056388;28;20851;-63
2022/05/14 05:13:31;;;;;;;8.63;7.70;;;15.50;99.90;;;;;;5056402;28;20448;-63
2022/05/14 05:16:01;;;;;;;9.07;8.17;;;15.50;99.90;;;;;;5055584;28;20947;-64
2022/05/14 05:18:28;;;;;;;8.47;7.37;;;15.50;99.90;;;;;;5056117;28;20441;-64
2022/05/14 05:20:56;;;;;;;8.37;7.47;;;15.50;99.90;;;;;;5055854;28;20486;-63
2022/05/14 05:23:24;;;;;;;8.63;7.70;;;15.60;99.90;;;;;;5056025;28;20491;-63
2022/05/14 05:25:52;;;;;;;8.70;7.53;;;15.70;99.90;;;;;;5055527;28;20472;-64
2022/05/14 05:28:21;;;;;;;8.13;7.33;;;15.80;99.90;;;;;;5055979;28;20444;-64
2022/05/14 05:30:48;;;;;;;7.60;6.90;;;15.80;99.90;;;;;;5055509;28;20514;-64
2022/05/14 05:33:20;;;;;;;9.10;8.27;;;15.90;99.90;;;;;;5056052;28;20436;-64
2022/05/14 05:35:47;;;;;;;8.87;8.07;;;16.00;99.90;;;;;;5055754;28;20444;-64
2022/05/14 05:38:14;;;;;;;13.27;9.63;;;16.10;99.90;;;;;;5055852;28;20468;-64
2022/05/14 05:40:42;;;;;;;13.10;9.93;;;16.10;99.90;;;;;;5055461;28;20966;-63
2022/05/14 05:43:12;;;;;;;10.07;9.07;;;16.20;99.90;;;;;;5055764;28;20931;-64
2022/05/14 05:45:45;;;;;;;8.80;7.90;;;16.30;99.90;;;;;;5054926;28;20983;-63
2022/05/14 05:48:12;;;;;;;7.83;7.13;;;16.40;99.90;;;;;;5055645;28;20468;-64
2022/05/14 05:50:40;;;;;;;8.30;7.50;;;16.50;99.90;;;;;;5054728;28;20480;-65
2022/05/14 05:53:07;;;;;;;8.23;7.43;;;16.50;99.90;;;;;;5052255;28;20432;-64
2022/05/14 05:58:20;;;;;;;10.50;9.50;;;16.70;99.90;;;;;;5054253;28;20419;-63
2022/05/14 06:00:49;;;;;;;8.53;7.73;;;16.70;99.90;;;;;;5053457;28;20498;-63
2022/05/14 06:03:17;;;;;;;9.37;8.57;;;16.70;99.90;;;;;;5053635;28;20528;-64
2022/05/14 06:05:44;;;;;;;13.83;8.70;;;16.70;99.90;;;;;;5053558;28;20449;-64
2022/05/14 06:08:14;;;;;;;12.77;11.50;;;16.80;99.90;;;;;;5053941;28;20445;-63
2022/05/14 06:10:42;;;;;;;11.73;10.40;;;16.90;99.90;;;;;;5053494;28;20484;-64
2022/05/14 06:13:10;;;;;;;14.50;10.47;;;16.90;99.90;;;;;;5053146;28;20436;-64
2022/05/14 06:15:39;;;;;;;10.90;9.80;;;17.10;99.90;;;;;;5053428;28;20982;-64
2022/05/14 06:18:09;;;;;;;9.90;8.90;;;17.30;99.90;;;;;;5054087;28;20433;-64
2022/05/14 06:20:39;;;;;;;10.97;9.73;;;17.40;99.90;;;;;;5053341;28;20452;-64
2022/05/14 06:23:07;;;;;;;9.73;8.33;;;17.50;99.90;;;;;;5047057;28;20444;-67
2022/05/14 06:25:35;;;;;;;11.27;9.60;;;17.60;99.40;;;;;;5051343;28;20445;-64
2022/05/14 06:28:02;;;;;;;9.07;8.17;;;17.60;97.80;;;;;;5051884;28;20441;-65
2022/05/14 06:30:30;;;;;;;9.03;8.13;;;17.70;98.00;;;;;;5051413;28;20488;-64
2022/05/14 06:33:03;;;;;;;11.07;8.20;;;17.80;98.40;;;;;;5051538;28;20524;-65
2022/05/14 06:35:32;;;;;;;10.30;8.10;;;17.90;98.40;;;;;;5050776;28;20448;-64
2022/05/14 06:37:59;;;;;;;9.70;7.47;;;18.00;98.40;;;;;;5051804;28;20540;-64
2022/05/14 06:40:27;;;;;;;13.50;10.57;;;18.10;98.00;;;;;;5051103;28;20510;-65
2022/05/14 06:42:54;;;;;;;8.53;7.73;;;18.20;97.30;;;;;;5051181;28;20510;-64
2022/05/14 06:45:21;;;;;;;10.53;9.00;;;18.20;96.20;;;;;;5050740;28;20547;-64
2022/05/14 06:47:48;;;;;;;9.73;7.67;;;18.30;96.20;;;;;;5051188;28;20500;-64
2022/05/14 06:50:15;;;;;;;9.40;7.63;;;18.30;96.00;;;;;;5051154;28;20565;-64
2022/05/14 06:52:48;;;;;;;7.30;6.60;;;18.30;95.60;;;;;;5047919;28;20498;-64
2022/05/14 06:55:18;;;;;;;12.23;8.87;;;18.40;95.10;;;;;;5051436;28;20445;-64
2022/05/14 06:57:46;;;;;;;16.00;8.67;;;18.40;95.70;;;;;;5050541;28;20440;-65
2022/05/14 07:00:14;;;;;;;9.07;8.10;;;18.60;96.00;;;;;;5047919;28;20528;-64
2022/05/14 07:02:42;;;;;;;9.83;7.27;;;18.90;97.40;;;;;;5050981;28;21437;-67
2022/05/14 07:07:56;;;;;;;10.80;7.97;;;19.30;94.70;;;;;;5051198;28;20459;-64
2022/05/14 07:10:23;;;;;;;9.40;8.40;;;19.40;93.80;;;;;;5050776;28;20477;-64
2022/05/14 07:12:51;;;;;;;9.80;8.07;;;19.50;93.20;;;;;;5050511;28;20444;-65
2022/05/14 07:15:18;;;;;;;9.17;8.23;;;19.60;92.60;;;;;;5051013;28;20947;-64
2022/05/14 07:17:45;;;;;;;10.03;7.87;;;19.80;93.30;;;;;;5050861;28;20447;-64
2022/05/14 07:20:13;;;;;;;13.90;9.33;;;20.10;92.90;;;;;;5049914;28;20449;-66
2022/05/14 07:22:40;;;;;;;10.10;7.80;;;20.30;91.60;;;;;;5050995;28;20524;-64
2022/05/14 07:25:09;;;;;;;9.80;8.37;;;20.50;91.20;;;;;;5050383;28;20556;-65
2022/05/14 07:27:36;;;;;;;9.10;8.00;;;20.60;86.90;;;;;;5051488;28;20527;-64
2022/05/14 07:30:04;;;;;;;10.17;7.80;;;20.50;89.10;;;;;;5050754;28;20483;-65
2022/05/14 07:32:31;;;;;;;10.03;7.23;;;20.50;87.20;;;;;;5051230;28;20567;-65
2022/05/14 07:34:58;;;;;;;8.47;7.23;;;20.50;83.60;;;;;;5050687;28;20495;-64
2022/05/14 07:37:33;;;;;;;8.07;7.27;;;20.60;84.90;;;;;;5051066;28;20491;-64
2022/05/14 07:40:04;;;;;;;8.07;7.27;;;20.70;83.40;;;;;;5050304;28;20903;-64
2022/05/14 07:42:39;;;;;;;8.97;7.57;;;20.90;86.00;;;;;;5051513;28;20520;-65
2022/05/14 07:45:09;;;;;;;12.00;8.83;;;21.10;86.30;;;;;;5051616;28;20444;-64
2022/05/14 07:47:38;;;;;;;13.50;8.07;;;21.30;84.00;;;;;;5050149;28;20488;-64
2022/05/14 07:50:07;;;;;;;9.30;8.00;;;21.50;78.00;;;;;;5051572;28;20906;-65
2022/05/14 07:52:34;;;;;;;9.23;7.40;;;21.60;80.90;;;;;;5050276;28;20444;-64
2022/05/14 07:55:01;;;;;;;9.53;7.80;;;21.70;81.90;;;;;;5051237;28;20441;-65
2022/05/14 07:57:28;;;;;;;10.50;7.93;;;21.90;80.60;;;;;;5051281;28;20528;-64
2022/05/14 07:59:57;;;;;;;9.20;8.23;;;22.00;79.60;;;;;;5048617;28;20480;-64
2022/05/14 08:02:28;;;;;;;10.17;8.60;;;22.10;78.70;;;;;;5045754;28;20964;-64
2022/05/14 08:04:55;;;;;;;9.50;8.00;;;22.10;76.90;;;;;;5050661;28;20927;-64
2022/05/14 08:07:26;;;;;;;12.70;9.97;;;22.20;76.30;;;;;;5050675;28;20437;-64
2022/05/14 08:09:53;;;;;;;12.77;9.43;;;22.10;73.50;;;;;;5046335;28;20491;-64
2022/05/14 08:12:20;;;;;;;10.33;8.70;;;22.00;72.40;;;;;;5049758;28;20440;-64
2022/05/14 08:14:47;;;;;;;14.27;8.77;;;22.00;74.90;;;;;;5050038;28;20449;-64
2022/05/14 08:17:16;;;;;;;10.77;9.07;;;22.20;72.10;;;;;;5049118;28;20448;-65
2022/05/14 08:19:45;;;;;;;9.77;8.80;;;22.40;75.60;;;;;;5049704;28;20440;-64
2022/05/14 08:24:56;;;;;;;10.87;8.40;;;22.60;72.00;;;;;;5050016;28;20482;-64
2022/05/14 08:27:23;;;;;;;10.87;9.27;;;22.80;74.20;;;;;;5049807;28;20981;-64
2022/05/14 08:29:50;;;;;;;12.40;8.00;;;23.00;73.50;;;;;;5050106;28;20524;-65
2022/05/14 08:32:21;;;;;;;11.53;8.80;;;23.10;69.90;;;;;;5049713;28;20468;-64
2022/05/14 08:34:49;;;;;;;10.30;8.47;;;23.00;69.60;;;;;;5049551;28;20552;-64
2022/05/14 08:37:16;;;;;;;8.47;6.90;;;23.00;71.50;;;;;;5049754;28;20447;-64
2022/05/14 08:39:44;;;;;;;11.73;8.63;;;23.00;67.90;;;;;;5049361;28;21030;-65
2022/05/14 08:42:12;;;;;;;13.77;7.73;;;22.90;68.50;;;;;;5050056;28;20440;-65
2022/05/14 08:44:42;;;;;;;7.90;7.10;;;22.80;70.50;;;;;;5050062;28;20516;-65
2022/05/14 08:47:27;;;;;;;11.43;7.70;;;22.80;75.00;;;;;;5049410;28;20460;-65
2022/05/14 08:49:56;;;;;;;9.70;7.00;;;22.70;71.80;;;;;;5048036;28;20467;-65
2022/05/14 08:52:25;;;;;;;8.93;6.60;;;22.70;73.80;;;;;;5049580;28;20449;-65
2022/05/14 08:54:57;;;;;;;7.90;7.10;;;22.80;76.90;;;;;;5049942;28;20448;-64
2022/05/14 08:57:36;;;;;;;10.30;7.30;;;23.00;77.00;;;;;;5049603;28;20437;-64
2022/05/14 09:00:06;;;;;;;9.40;7.53;;;23.20;76.20;;;;;;5050012;28;20440;-65
2022/05/14 09:02:38;;;;;;;11.00;7.27;;;23.30;77.20;;;;;;5049614;28;20433;-65
2022/05/14 09:05:08;;;;;;;6.67;5.40;;;23.50;67.90;;;;;;5049883;28;20441;-65
2022/05/14 09:07:37;;;;;;;4.90;3.90;;;23.50;65.70;;;;;;5049422;28;20532;-65
2022/05/14 09:10:08;;;;;;;6.83;4.60;;;23.60;58.50;;;;;;5048663;28;20437;-65
2022/05/14 09:12:49;;;;;;;8.60;5.27;;;23.70;60.00;;;;;;5049795;28;20438;-66
2022/05/14 09:15:17;;;;;;;6.43;4.37;;;23.90;61.50;;;;;;5048901;28;20483;-64
2022/05/14 09:17:45;;;;;;;7.80;5.50;;;24.00;63.10;;;;;;5049761;28;20521;-64
2022/05/14 09:20:25;;;;;;;7.43;4.13;;;24.20;58.30;;;;;;5050599;28;20859;-65
2022/05/14 09:22:57;;;;;;;8.53;4.23;;;24.20;58.60;;;;;;5045282;28;20901;-65
2022/05/14 09:25:30;;;;;;;7.90;3.50;;;24.30;55.40;;;;;;5040306;28;20560;-65
2022/05/14 09:28:00;;;;;;;6.27;3.60;;;24.20;55.60;;;;;;5045200;28;20445;-64
2022/05/14 09:30:32;;;;;;;6.40;4.60;;;24.20;53.40;;;;;;5048232;28;20489;-64
2022/05/14 09:33:01;;;;;;;7.33;4.13;;;24.20;52.00;;;;;;5048832;28;20430;-65
2022/05/14 09:35:32;;;;;;;6.70;3.20;;;24.20;53.50;;;;;;5049409;28;20477;-67
2022/05/14 09:38:10;;;;;;;9.47;3.60;;;24.10;49.40;;;;;;5050007;28;20856;-63
2022/05/14 09:40:38;;;;;;;5.73;3.77;;;24.10;51.10;;;;;;5049784;28;20758;-64
2022/05/14 09:43:12;;;;;;;6.20;3.30;;;24.00;52.80;;;;;;5049247;28;20496;-64
2022/05/14 09:45:41;;;;;;;5.07;3.80;;;24.00;51.00;;;;;;5049681;28;20524;-64
2022/05/14 09:48:32;;;;;;;4.73;3.77;;;24.00;50.70;;;;;;5052078;28;20464;-64
2022/05/14 09:51:01;;;;;;;8.57;3.93;;;24.00;53.00;;;;;;5053119;28;20491;-64
2022/05/14 09:53:57;;;;;;;6.20;3.47;;;24.00;52.50;;;;;;5042552;28;20491;-64
2022/05/14 09:56:48;;;;;;;6.20;3.47;;;23.90;52.10;;;;;;5038726;28;20951;-65
2022/05/14 09:59:35;;;;;;;5.83;4.03;;;24.10;53.90;;;;;;5039947;28;20974;-64
2022/05/14 10:02:11;;;;;;;5.60;3.80;;;24.30;54.60;;;;;;5034736;28;21079;-65
2022/05/14 10:04:55;;;;;;;6.27;3.90;;;24.40;48.90;;;;;;5042621;28;20461;-67
2022/05/14 10:07:27;;;;;;;5.53;3.63;;;24.40;50.60;;;;;;5036296;28;20430;-64
2022/05/14 10:10:02;;;;;;;7.87;4.13;;;24.50;50.80;;;;;;5046225;28;20441;-64
2022/05/14 10:12:36;;;;;;;7.13;4.67;;;24.50;50.00;;;;;;5048260;28;20479;-67
2022/05/14 10:15:15;;;;;;;7.40;4.97;;;24.60;49.10;;;;;;5049268;28;20861;-65
2022/05/14 10:17:51;;;;;;;8.57;4.10;;;24.60;48.50;;;;;;5046949;28;20548;-64
2022/05/14 10:20:35;;;;;;;7.60;4.73;;;24.80;48.90;;;;;;5049202;28;20447;-64
2022/05/14 10:26:46;;;;;;;6.70;3.60;;;24.70;49.60;;;;;;5047543;28;20569;-64
2022/05/14 10:29:31;;;;;;;6.20;4.20;;;24.70;49.50;;;;;;5050625;28;20500;-63
2022/05/14 10:32:04;;;;;;;6.30;4.30;;;24.80;50.10;;;;;;5050139;28;20837;-65
2022/05/14 10:34:44;;;;;;;12.47;8.40;;;24.90;50.30;;;;;;5047829;28;20430;-66
2022/05/14 10:37:22;;;;;;;7.90;4.33;;;25.10;50.40;;;;;;5048627;28;20506;-64
2022/05/14 10:39:56;;;;;;;5.20;3.50;;;25.20;51.70;;;;;;5049091;28;20468;-64
2022/05/14 10:42:33;;;;;;;6.73;3.77;;;25.30;51.80;;;;;;5050784;28;20435;-64
2022/05/14 10:45:07;;;;;;;4.30;3.60;;;25.50;51.70;;;;;;5049782;28;20493;-63
2022/05/14 10:47:39;;;;;;;9.17;4.30;;;25.60;50.60;;;;;;5050640;28;20538;-64
2022/05/14 10:50:16;;;;;;;7.10;4.00;;;25.80;49.30;;;;;;5050085;28;20440;-64
2022/05/14 10:52:46;;;;;;;4.67;3.57;;;25.90;50.50;;;;;;5050315;28;20485;-65
2022/05/14 10:55:19;;;;;;;8.07;3.50;;;26.00;50.30;;;;;;5050498;28;20444;-64
2022/05/14 10:57:50;;;;;;;7.73;4.70;;;26.20;48.40;;;;;;5050851;28;20451;-64
2022/05/14 11:00:24;;;;;;;4.93;3.73;;;26.40;45.40;;;;;;5050878;28;20437;-64
2022/05/14 11:02:58;;;;;;;6.80;3.67;;;26.40;44.80;;;;;;5051584;28;20463;-64
2022/05/14 11:05:34;;;;;;;5.27;3.60;;;26.30;43.60;;;;;;5050723;28;20452;-64
2022/05/14 11:08:13;;;;;;;6.77;3.57;;;26.20;43.50;;;;;;5051048;28;20464;-64
2022/05/14 11:10:40;;;;;;;6.23;4.07;;;26.00;46.40;;;;;;5050810;28;20455;-64
2022/05/14 11:13:15;;;;;;;8.13;5.40;;;26.10;48.60;;;;;;5050211;28;20444;-66
2022/05/14 11:15:44;;;;;;;7.73;3.47;;;26.20;49.10;;;;;;5050498;28;20437;-65
2022/05/14 11:18:14;;;;;;;9.53;4.00;;;26.40;49.90;;;;;;5051000;28;20441;-64
2022/05/14 11:20:55;;;;;;;3.60;3.10;;;26.40;49.20;;;;;;5050946;28;20446;-64
2022/05/14 11:23:24;;;;;;;5.50;3.50;;;26.60;48.90;;;;;;5051379;28;20434;-64
2022/05/14 11:26:06;;;;;;;4.93;3.43;;;26.70;48.30;;;;;;5050286;28;20445;-64
2022/05/14 11:28:33;;;;;;;11.70;7.30;;;26.70;46.30;;;;;;5046932;28;20804;-64
2022/05/14 11:31:17;;;;;;;11.13;4.73;;;26.80;45.50;;;;;;5051354;28;20475;-64
2022/05/14 11:33:46;;;;;;;5.60;3.87;;;26.80;42.60;;;;;;5047166;28;20498;-64
2022/05/14 11:36:23;;;;;;;11.63;4.43;;;26.90;44.70;;;;;;5050938;28;20783;-66
2022/05/14 11:39:08;;;;;;;9.37;3.87;;;27.00;45.60;;;;;;5050313;28;20903;-64
2022/05/14 11:41:37;;;;;;;4.07;2.93;;;27.00;44.30;;;;;;5051220;28;20501;-64
2022/05/14 11:44:06;;;;;;;5.73;3.77;;;27.00;45.40;;;;;;5050581;28;20437;-64
2022/05/14 11:46:41;;;;;;;7.70;3.67;;;27.00;44.80;;;;;;5050557;28;20461;-64
2022/05/14 11:49:20;;;;;;;7.80;3.87;;;27.00;44.70;;;;;;5051284;28;20432;-64
2022/05/14 11:51:59;;;;;;;5.57;3.80;;;27.00;43.80;;;;;;5047907;28;20499;-63
2022/05/14 11:54:33;;;;;;;11.93;3.90;;;26.90;42.70;;;;;;5050718;28;20575;-63
2022/05/14 11:57:04;;;;;;;6.00;3.63;;;26.90;43.00;;;;;;5051149;28;20537;-64
2022/05/14 11:59:40;;;;;;;6.47;3.17;;;26.90;45.20;;;;;;5050966;28;20441;-65
2022/05/14 12:02:14;;;;;;;6.10;3.87;;;26.80;45.20;;;;;;5047826;28;20433;-64
2022/05/14 12:04:45;;;;;;;6.80;3.73;;;26.80;47.00;;;;;;5050544;28;20504;-65
2022/05/14 12:07:53;;;;;;;5.30;3.33;;;26.90;45.30;;;;;;5050619;28;20439;-64
2022/05/14 12:10:30;;;;;;;6.20;3.23;;;27.00;42.60;;;;;;5048020;28;20452;-64
2022/05/14 12:13:07;;;;;;;6.13;3.53;;;27.10;43.40;;;;;;5046680;28;20495;-64
2022/05/14 12:15:34;;;;;;;4.73;3.63;;;27.10;42.30;;;;;;5049554;28;20431;-65
2022/05/14 12:18:02;;;;;;;4.67;3.40;;;27.20;43.40;;;;;;5050727;28;20449;-64
2022/05/14 12:20:31;;;;;;;6.10;2.90;;;27.20;44.30;;;;;;5050697;28;20981;-64
2022/05/14 12:23:01;;;;;;;4.87;3.13;;;27.20;44.60;;;;;;5051384;28;20437;-64
2022/05/14 12:25:39;;;;;;;6.50;3.17;;;27.20;45.70;;;;;;5050734;28;20528;-64
2022/05/14 12:28:07;;;;;;;4.23;3.27;;;27.10;41.90;;;;;;5050519;28;20464;-64
2022/05/14 12:33:23;;;;;;;5.90;2.90;;;27.00;44.00;;;;;;5050691;28;20827;-64
2022/05/14 12:35:54;;;;;;;5.03;4.00;;;27.10;45.70;;;;;;5050729;28;20458;-63
2022/05/14 12:38:30;;;;;;;5.03;3.43;;;27.20;45.20;;;;;;5050168;28;20783;-64
2022/05/14 12:41:00;;;;;;;4.63;3.00;;;27.20;42.40;;;;;;5050758;28;20437;-64
2022/05/14 12:43:28;;;;;;;5.00;3.00;;;27.10;41.30;;;;;;5049769;28;20436;-65
2022/05/14 12:46:03;;;;;;;3.83;3.00;;;27.20;44.70;;;;;;5046632;28;20867;-64
2022/05/14 12:48:31;;;;;;;5.90;2.77;;;27.30;43.70;;;;;;5050187;28;20467;-63
2022/05/14 12:51:01;;;;;;;5.47;3.00;;;27.40;43.10;;;;;;5049823;28;20921;-65
2022/05/14 12:53:37;;;;;;;6.40;2.60;;;27.40;42.60;;;;;;5050191;28;20497;-65
2022/05/14 12:56:06;;;;;;;8.37;2.70;;;27.20;40.30;;;;;;5050332;28;20441;-64
2022/05/14 12:58:34;;;;;;;10.40;3.27;;;27.10;41.50;;;;;;5050124;28;20445;-64
2022/05/14 13:01:04;;;;;;;4.80;2.70;;;27.00;41.50;;;;;;5050336;28;20493;-65
2022/05/14 13:03:36;;;;;;;6.00;3.20;;;27.00;42.60;;;;;;5050653;28;20443;-63
2022/05/14 13:06:06;;;;;;;6.83;2.53;;;27.00;43.30;;;;;;5045856;28;20441;-64
2022/05/14 13:08:34;;;;;;;7.10;2.10;;;27.00;43.40;;;;;;5047691;28;20443;-63
2022/05/14 13:11:04;;;;;;;4.30;2.67;;;27.00;43.20;;;;;;5050503;28;20490;-64
2022/05/14 13:13:36;;;;;;;4.10;2.60;;;27.00;43.00;;;;;;5049811;28;20453;-64
2022/05/14 13:16:12;;;;;;;7.63;2.77;;;27.00;41.40;;;;;;5050317;28;20441;-63